Time;durP1;ratioP1;P1;durP2;ratioP2;P2;SDS_P1;SDS_P2;PMS_P1;PMS_P2;Temp;Humidity;BMP_temperature;BMP_pressure;BME280_temperature;BME280_humidity;BME280_pressure;Samples;Min_cycle;Max_cycle;Signal;HPM_P1;HPM_P2
2023/05/16 00:00:58;;;;;;;8.97;7.77;;;10.60;1.00;;;;;;6120932;23;20242;-80
2023/05/16 00:03:24;;;;;;;8.23;7.50;;;10.60;1.00;;;;;;6122839;23;20877;-80
2023/05/16 00:05:50;;;;;;;8.57;7.77;;;10.70;1.00;;;;;;6148762;23;20155;-80
2023/05/16 00:08:16;;;;;;;7.73;7.00;;;10.80;1.00;;;;;;6122799;23;20179;-81
2023/05/16 00:10:41;;;;;;;9.03;7.33;;;10.80;1.00;;;;;;6148786;23;20167;-81
2023/05/16 00:13:08;;;;;;;7.87;7.07;;;10.80;1.00;;;;;;6122684;23;20940;-82
2023/05/16 00:15:34;;;;;;;8.17;7.37;;;11.10;1.00;;;;;;6122780;23;20724;-81
2023/05/16 00:18:00;;;;;;;7.37;6.77;;;10.80;1.00;;;;;;6122422;23;20569;-81
2023/05/16 00:20:26;;;;;;;8.53;7.33;;;10.70;1.00;;;;;;6149069;23;20176;-82
2023/05/16 00:22:53;;;;;;;7.27;6.57;;;10.70;1.00;;;;;;6148926;23;20235;-81
2023/05/16 00:25:18;;;;;;;8.17;7.37;;;10.70;1.00;;;;;;6122667;23;20164;-81
2023/05/16 00:27:44;;;;;;;7.40;6.70;;;10.80;1.00;;;;;;6122212;23;20596;-80
2023/05/16 00:30:10;;;;;;;7.90;7.10;;;10.90;1.00;;;;;;6122176;23;20186;-77
2023/05/16 00:32:36;;;;;;;7.57;6.87;;;10.90;1.00;;;;;;6122502;23;20199;-81
2023/05/16 00:35:02;;;;;;;8.43;7.63;;;11.00;1.00;;;;;;6148480;23;20159;-80
2023/05/16 00:37:27;;;;;;;7.90;7.07;;;11.10;1.00;;;;;;6148189;23;20199;-80
2023/05/16 00:39:53;;;;;;;8.00;7.30;;;11.00;1.00;;;;;;6122120;23;20656;-81
2023/05/16 00:42:20;;;;;;;8.47;7.57;;;10.90;1.00;;;;;;6148627;23;20191;-80
2023/05/16 00:44:46;;;;;;;8.67;7.83;;;11.00;1.00;;;;;;6122311;23;20187;-82
2023/05/16 00:47:11;;;;;;;8.57;7.37;;;11.00;1.00;;;;;;6122054;23;20202;-79
2023/05/16 00:49:37;;;;;;;9.53;8.27;;;11.10;1.00;;;;;;6148420;23;20172;-82
2023/05/16 00:52:04;;;;;;;8.90;7.23;;;11.10;1.00;;;;;;6122180;23;20156;-81
2023/05/16 00:54:30;;;;;;;7.63;6.93;;;11.10;1.00;;;;;;6123018;23;20210;-81
2023/05/16 00:56:56;;;;;;;7.60;6.90;;;12.10;1.00;;;;;;6122011;23;20505;-82
2023/05/16 00:59:25;;;;;;;6.80;6.20;;;11.20;1.00;;;;;;6122155;23;20184;-81
2023/05/16 01:01:51;;;;;;;6.60;6.00;;;11.30;1.00;;;;;;6122278;23;20171;-80
2023/05/16 01:04:17;;;;;;;6.00;5.50;;;11.40;1.00;;;;;;6148251;23;20663;-81
2023/05/16 01:06:44;;;;;;;6.33;5.73;;;11.30;1.00;;;;;;6121840;23;20167;-79
2023/05/16 01:09:11;;;;;;;6.63;5.90;;;11.30;1.00;;;;;;6148060;23;20172;-82
2023/05/16 01:11:51;;;;;;;6.70;6.10;;;11.30;1.00;;;;;;6148192;23;20179;-83
2023/05/16 01:14:51;;;;;;;6.38;5.53;;;11.40;1.00;;;;;;6121576;23;20152;-81
2023/05/16 01:17:29;;;;;;;5.47;4.97;;;11.40;1.00;;;;;;6122007;23;20283;-84
2023/05/16 01:20:03;;;;;;;6.00;5.37;;;11.20;1.00;;;;;;6121846;23;20285;-82
2023/05/16 01:22:44;;;;;;;5.97;5.40;;;11.30;1.00;;;;;;6122076;23;20699;-80
2023/05/16 01:25:25;;;;;;;6.27;5.50;;;11.30;1.00;;;;;;6147943;23;20144;-80
2023/05/16 01:27:51;;;;;;;8.32;5.63;;;11.30;1.00;;;;;;6147522;23;20179;-80
2023/05/16 01:30:18;;;;;;;6.30;5.50;;;11.30;1.00;;;;;;6122064;23;20200;-82
2023/05/16 01:32:44;;;;;;;6.30;5.80;;;11.40;1.00;;;;;;6121973;23;20167;-82
2023/05/16 01:35:14;;;;;;;7.13;6.40;;;11.50;1.00;;;;;;6121719;23;20492;-82
2023/05/16 01:38:01;;;;;;;7.47;6.40;;;11.50;1.00;;;;;;6120991;23;20175;-79
2023/05/16 01:40:52;;;;;;;6.20;5.60;;;11.20;1.00;;;;;;6121928;23;20262;-83
2023/05/16 01:43:24;;;;;;;8.10;5.73;;;11.20;1.00;;;;;;6120878;23;20493;-80
2023/05/16 01:45:56;;;;;;;6.77;5.30;;;11.00;1.00;;;;;;6121595;23;20152;-79
2023/05/16 01:48:29;;;;;;;6.13;5.30;;;11.00;1.00;;;;;;6121610;23;20179;-81
2023/05/16 01:50:56;;;;;;;5.40;4.90;;;10.90;1.00;;;;;;6148159;23;20604;-81
2023/05/16 01:53:27;;;;;;;10.90;4.63;;;11.10;1.00;;;;;;6121887;23;20167;-81
2023/05/16 01:55:56;;;;;;;6.63;4.30;;;11.20;1.00;;;;;;6121776;23;20151;-81
2023/05/16 01:58:26;;;;;;;5.00;4.30;;;11.20;1.00;;;;;;6121780;23;20188;-80
2023/05/16 02:00:53;;;;;;;7.67;4.37;;;11.10;1.00;;;;;;6147777;23;20176;-81
2023/05/16 02:03:18;;;;;;;6.28;4.53;;;11.10;1.00;;;;;;6121769;23;20159;-81
2023/05/16 02:05:44;;;;;;;5.90;4.17;;;11.10;1.00;;;;;;6120698;23;20478;-81
2023/05/16 02:08:10;;;;;;;4.97;4.33;;;11.20;1.00;;;;;;6146974;23;20186;-80
2023/05/16 02:10:35;;;;;;;6.10;4.30;;;11.20;1.00;;;;;;6120599;23;20163;-80
2023/05/16 02:13:01;;;;;;;6.80;4.53;;;11.20;1.00;;;;;;6120617;23;20212;-81
2023/05/16 02:15:27;;;;;;;5.07;4.13;;;11.10;1.00;;;;;;6122028;23;20175;-81
2023/05/16 02:17:53;;;;;;;4.67;4.13;;;11.00;1.00;;;;;;6120976;23;20164;-81
2023/05/16 02:20:18;;;;;;;5.23;3.87;;;11.70;1.00;;;;;;6121391;23;20191;-81
2023/05/16 02:22:46;;;;;;;4.00;3.60;;;11.00;1.00;;;;;;6121546;23;20175;-82
2023/05/16 02:25:14;;;;;;;3.97;3.13;;;11.00;1.00;;;;;;6147433;23;20147;-78
2023/05/16 02:27:40;;;;;;;4.10;3.40;;;11.70;1.00;;;;;;6121046;23;20222;-78
2023/05/16 02:30:06;;;;;;;4.90;3.40;;;11.00;1.00;;;;;;6121480;23;20243;-81
2023/05/16 02:32:32;;;;;;;5.37;3.60;;;11.00;1.00;;;;;;6147760;23;20218;-81
2023/05/16 02:34:58;;;;;;;5.33;3.53;;;11.00;1.00;;;;;;6121417;23;20616;-80
2023/05/16 02:37:24;;;;;;;4.23;3.40;;;11.10;1.00;;;;;;6146798;23;20182;-79
2023/05/16 02:39:49;;;;;;;4.23;3.37;;;11.10;1.00;;;;;;6147384;23;20214;-81
2023/05/16 02:42:15;;;;;;;3.53;3.03;;;11.50;1.00;;;;;;6121241;23;20160;-81
2023/05/16 02:44:40;;;;;;;4.57;3.50;;;11.20;1.00;;;;;;6121244;23;20156;-78
2023/05/16 02:47:06;;;;;;;4.10;3.17;;;11.20;1.00;;;;;;6121151;23;20160;-82
2023/05/16 02:49:32;;;;;;;4.23;3.30;;;11.30;1.00;;;;;;6147177;23;20167;-81
2023/05/16 02:51:57;;;;;;;4.43;3.33;;;11.40;1.00;;;;;;6121188;23;20249;-81
2023/05/16 02:54:23;;;;;;;3.77;3.43;;;11.40;1.00;;;;;;6121111;23;20612;-80
2023/05/16 02:56:48;;;;;;;3.30;3.00;;;11.40;1.00;;;;;;6147321;23;20622;-81
2023/05/16 02:59:14;;;;;;;3.97;3.23;;;11.40;1.00;;;;;;6120805;23;20175;-81
2023/05/16 03:01:40;;;;;;;4.55;3.45;;;11.30;1.00;;;;;;6121251;23;20190;-79
2023/05/16 03:04:05;;;;;;;4.88;3.17;;;11.40;1.00;;;;;;6147097;23;20536;-81
2023/05/16 03:06:31;;;;;;;5.15;3.10;;;11.30;1.00;;;;;;6147650;23;20154;-83
2023/05/16 03:08:56;;;;;;;6.47;4.03;;;11.60;1.00;;;;;;6146752;23;20171;-81
2023/05/16 03:11:23;;;;;;;5.33;3.70;;;11.80;1.00;;;;;;6121172;23;20186;-81
2023/05/16 03:13:49;;;;;;;4.27;3.07;;;11.10;1.00;;;;;;6121218;23;20166;-81
2023/05/16 03:16:15;;;;;;;5.87;3.20;;;11.10;1.00;;;;;;6147025;23;20160;-80
2023/05/16 03:18:41;;;;;;;3.50;3.15;;;11.00;1.00;;;;;;6147072;23;20761;-81
2023/05/16 03:21:06;;;;;;;5.10;2.80;;;11.00;1.00;;;;;;6120945;23;20194;-81
2023/05/16 03:23:32;;;;;;;4.30;2.80;;;10.90;1.00;;;;;;6121309;23;20214;-80
2023/05/16 03:25:58;;;;;;;4.47;3.10;;;10.80;1.00;;;;;;6120611;23;20163;-81
2023/05/16 03:28:24;;;;;;;4.07;2.87;;;10.80;1.00;;;;;;6120818;23;20793;-83
2023/05/16 03:30:49;;;;;;;4.57;2.90;;;10.80;1.00;;;;;;6120894;23;20160;-81
2023/05/16 03:33:15;;;;;;;5.23;2.83;;;10.90;1.00;;;;;;6121035;23;21000;-80
2023/05/16 03:35:42;;;;;;;3.73;2.80;;;11.00;1.00;;;;;;6120916;23;20198;-81
2023/05/16 03:38:08;;;;;;;5.43;3.00;;;11.00;1.00;;;;;;6146179;23;20676;-78
2023/05/16 03:40:33;;;;;;;4.50;2.60;;;11.00;1.00;;;;;;6147054;23;20207;-81
2023/05/16 03:42:59;;;;;;;4.63;3.17;;;11.00;1.00;;;;;;6120945;23;20950;-81
2023/05/16 03:45:24;;;;;;;5.80;3.70;;;10.90;1.00;;;;;;6120740;23;20214;-79
2023/05/16 03:47:50;;;;;;;3.90;2.93;;;10.90;1.00;;;;;;6120596;23;20160;-82
2023/05/16 03:50:16;;;;;;;3.80;2.90;;;10.90;1.00;;;;;;6120868;23;20903;-81
2023/05/16 03:52:42;;;;;;;2.70;2.33;;;11.00;1.00;;;;;;6120852;23;20167;-82
2023/05/16 03:55:08;;;;;;;5.73;2.83;;;11.00;1.00;;;;;;6147222;23;20508;-78
2023/05/16 03:57:36;;;;;;;4.70;3.10;;;10.90;1.00;;;;;;6146702;23;20187;-81
2023/05/16 04:00:06;;;;;;;3.60;2.70;;;11.00;1.00;;;;;;6146654;23;20570;-81
2023/05/16 04:02:32;;;;;;;5.23;3.13;;;11.00;1.00;;;;;;6120739;23;20163;-81
2023/05/16 04:04:58;;;;;;;4.20;2.97;;;11.10;1.00;;;;;;6147228;23;20160;-81
2023/05/16 04:07:23;;;;;;;7.73;3.00;;;11.20;1.00;;;;;;6147285;23;20868;-79
2023/05/16 04:09:50;;;;;;;4.83;2.73;;;11.10;1.00;;;;;;6120681;23;20184;-78
2023/05/16 04:12:16;;;;;;;4.13;2.57;;;11.10;1.00;;;;;;6146938;23;20156;-81
2023/05/16 04:14:41;;;;;;;3.67;2.47;;;11.00;1.00;;;;;;6146830;23;20163;-79
2023/05/16 04:17:07;;;;;;;4.00;2.30;;;11.00;1.00;;;;;;6146835;23;20216;-82
2023/05/16 04:19:32;;;;;;;4.63;2.22;;;11.00;1.00;;;;;;6146200;23;20172;-81
2023/05/16 04:21:58;;;;;;;3.70;2.17;;;11.50;1.00;;;;;;6120801;23;20592;-80
2023/05/16 04:24:25;;;;;;;3.70;2.20;;;11.00;1.00;;;;;;6146686;23;20255;-83
2023/05/16 04:26:51;;;;;;;2.88;1.90;;;11.10;1.00;;;;;;6121159;23;20489;-81
2023/05/16 04:29:16;;;;;;;2.77;2.10;;;11.10;1.00;;;;;;6120378;23;20187;-80
2023/05/16 04:31:42;;;;;;;4.13;2.43;;;11.00;1.00;;;;;;6120771;23;20160;-81
2023/05/16 04:34:08;;;;;;;3.90;2.37;;;10.90;1.50;;;;;;6120497;23;20200;-81
2023/05/16 04:36:34;;;;;;;3.37;2.67;;;11.00;12.40;;;;;;6120300;23;20608;-81
2023/05/16 04:39:00;;;;;;;3.57;2.10;;;11.80;5.30;;;;;;6146979;23;20616;-82
2023/05/16 04:41:25;;;;;;;4.73;2.70;;;10.90;19.80;;;;;;6146418;23;20186;-82
2023/05/16 04:43:52;;;;;;;3.60;2.20;;;12.20;22.50;;;;;;6120974;23;20663;-79
2023/05/16 04:46:19;;;;;;;4.03;2.90;;;10.90;28.30;;;;;;6120344;23;20155;-82
2023/05/16 04:48:45;;;;;;;4.10;2.60;;;10.90;35.60;;;;;;6120634;23;20226;-78
2023/05/16 04:51:11;;;;;;;2.47;2.27;;;10.90;49.10;;;;;;6122689;23;20187;-83
2023/05/16 04:53:36;;;;;;;4.67;2.87;;;10.80;33.40;;;;;;6122038;23;20159;-81
2023/05/16 04:56:04;;;;;;;4.20;2.47;;;10.90;63.10;;;;;;6148615;23;20156;-82
2023/05/16 04:58:29;;;;;;;3.53;2.90;;;11.00;66.60;;;;;;6148225;23;20180;-80
2023/05/16 05:00:55;;;;;;;3.43;2.37;;;10.90;54.50;;;;;;6148521;23;20187;-81
2023/05/16 05:03:21;;;;;;;4.60;2.40;;;10.90;58.00;;;;;;6148366;23;20187;-83
2023/05/16 05:05:47;;;;;;;2.90;2.60;;;10.80;31.90;;;;;;6122224;23;20604;-81
2023/05/16 05:08:12;;;;;;;3.53;2.23;;;10.90;36.60;;;;;;6147924;23;20155;-83
2023/05/16 05:10:39;;;;;;;2.60;2.10;;;10.90;27.30;;;;;;6148096;23;20556;-82
2023/05/16 05:13:04;;;;;;;5.97;2.30;;;11.00;7.40;;;;;;6148345;23;20248;-82
2023/05/16 05:15:30;;;;;;;3.00;1.90;;;11.10;1.00;;;;;;6121921;23;20163;-78
2023/05/16 05:17:55;;;;;;;3.37;2.10;;;11.20;1.00;;;;;;6121895;23;20217;-84
2023/05/16 05:20:21;;;;;;;3.03;1.90;;;11.20;1.00;;;;;;6147980;23;20242;-82
2023/05/16 05:22:47;;;;;;;3.73;1.90;;;11.30;1.00;;;;;;6122115;23;20592;-83
2023/05/16 05:25:13;;;;;;;2.78;1.83;;;11.30;1.00;;;;;;6147915;23;20493;-79
2023/05/16 05:27:38;;;;;;;2.88;1.95;;;11.30;1.00;;;;;;6121768;23;20248;-80
2023/05/16 05:30:05;;;;;;;4.13;1.70;;;11.50;1.00;;;;;;6148238;23;20258;-81
2023/05/16 05:32:30;;;;;;;3.33;1.90;;;11.50;1.00;;;;;;6146798;23;20670;-81
2023/05/16 05:34:56;;;;;;;4.35;1.67;;;11.60;1.00;;;;;;6122187;23;20160;-81
2023/05/16 05:37:22;;;;;;;4.65;1.80;;;11.80;1.00;;;;;;6147580;23;20258;-81
2023/05/16 05:39:47;;;;;;;3.05;1.50;;;11.90;1.00;;;;;;6121738;23;20207;-81
2023/05/16 05:42:13;;;;;;;3.10;1.33;;;12.00;1.00;;;;;;6121815;23;20160;-81
2023/05/16 05:44:38;;;;;;;5.95;1.63;;;12.00;1.00;;;;;;6122091;23;20160;-81
2023/05/16 05:47:05;;;;;;;3.10;1.55;;;13.10;1.00;;;;;;6121792;23;20159;-80
2023/05/16 05:49:31;;;;;;;5.05;1.70;;;12.10;1.00;;;;;;6121546;23;20180;-81
2023/05/16 05:51:57;;;;;;;4.32;1.58;;;12.50;1.00;;;;;;6148179;23;20163;-82
2023/05/16 05:54:23;;;;;;;5.00;1.70;;;12.20;1.00;;;;;;6121608;23;20512;-79
2023/05/16 05:56:48;;;;;;;4.38;1.52;;;12.00;1.00;;;;;;6147862;23;20182;-80
2023/05/16 05:59:14;;;;;;;4.82;1.63;;;11.80;1.00;;;;;;6120858;23;20341;-81
2023/05/16 06:01:40;;;;;;;3.88;1.50;;;11.80;1.00;;;;;;6121558;23;20184;-79
2023/05/16 06:04:05;;;;;;;8.50;1.58;;;11.60;1.00;;;;;;6121751;23;20164;-82
2023/05/16 06:06:31;;;;;;;2.13;1.20;;;11.40;1.00;;;;;;6122039;23;20164;-81
2023/05/16 06:08:57;;;;;;;4.90;1.38;;;11.30;1.00;;;;;;6147517;23;20175;-80
2023/05/16 06:11:24;;;;;;;7.93;1.65;;;11.30;1.00;;;;;;6147533;23;20164;-78
2023/05/16 06:13:50;;;;;;;6.35;1.50;;;11.30;1.00;;;;;;6147869;23;20175;-83
2023/05/16 06:16:16;;;;;;;5.53;1.70;;;11.20;1.00;;;;;;6147517;23;20156;-81
2023/05/16 06:18:42;;;;;;;5.88;1.48;;;11.10;1.00;;;;;;6121297;23;20237;-81
2023/05/16 06:21:07;;;;;;;3.47;1.60;;;11.20;1.00;;;;;;6121474;23;20271;-82
2023/05/16 06:23:34;;;;;;;6.33;1.80;;;11.10;1.00;;;;;;6122206;23;20167;-81
2023/05/16 06:26:00;;;;;;;8.10;1.60;;;11.10;1.00;;;;;;6151566;23;20502;-84
2023/05/16 06:28:26;;;;;;;5.43;2.10;;;11.20;1.00;;;;;;6125205;23;20233;-84
2023/05/16 06:30:51;;;;;;;10.65;2.00;;;12.10;1.00;;;;;;6125709;23;20254;-85
2023/05/16 06:33:17;;;;;;;6.53;2.00;;;11.40;1.00;;;;;;6126278;23;20174;-83
2023/05/16 06:35:44;;;;;;;7.32;2.30;;;11.40;1.00;;;;;;6125979;23;20156;-83
2023/05/16 06:38:09;;;;;;;7.35;1.75;;;11.60;1.00;;;;;;6151509;23;20191;-82
2023/05/16 06:40:35;;;;;;;9.80;2.08;;;11.70;1.00;;;;;;6126389;23;20192;-83
2023/05/16 06:43:01;;;;;;;7.37;2.30;;;11.80;1.00;;;;;;6126328;23;20254;-83
2023/05/16 06:45:26;;;;;;;10.20;2.50;;;11.70;1.00;;;;;;6153051;23;20167;-82
2023/05/16 06:47:52;;;;;;;7.65;1.65;;;11.80;1.00;;;;;;6152495;23;20600;-84
2023/05/16 06:50:17;;;;;;;7.75;2.30;;;11.90;1.00;;;;;;6152839;23;20678;-81
2023/05/16 06:52:43;;;;;;;6.65;2.00;;;12.00;1.00;;;;;;6126734;23;20164;-84
2023/05/16 06:55:09;;;;;;;9.52;1.83;;;12.10;1.00;;;;;;6126079;23;20517;-84
2023/05/16 06:57:34;;;;;;;9.73;1.95;;;12.00;1.00;;;;;;6152141;23;20163;-84
2023/05/16 07:00:00;;;;;;;9.45;2.50;;;12.00;1.00;;;;;;6151902;23;20179;-83
2023/05/16 07:02:26;;;;;;;6.97;2.53;;;11.80;1.00;;;;;;6152531;23;20152;-84
2023/05/16 07:04:51;;;;;;;9.75;1.90;;;12.00;1.00;;;;;;6126595;23;20259;-84
2023/05/16 07:07:17;;;;;;;10.63;2.08;;;12.10;1.00;;;;;;6150129;23;20231;-82
2023/05/16 07:09:43;;;;;;;8.38;1.83;;;12.20;1.00;;;;;;6143590;23;20174;-81
2023/05/16 07:12:08;;;;;;;6.22;1.88;;;12.40;1.00;;;;;;6115928;23;20160;-81
2023/05/16 07:14:34;;;;;;;10.57;2.45;;;12.60;1.00;;;;;;6116084;23;20210;-82
2023/05/16 07:17:00;;;;;;;12.90;2.70;;;12.70;1.00;;;;;;6142846;23;20151;-81
2023/05/16 07:19:25;;;;;;;6.78;2.40;;;13.40;1.00;;;;;;6116620;23;20658;-81
2023/05/16 07:21:51;;;;;;;7.60;2.45;;;12.70;1.00;;;;;;6116498;23;20188;-82
2023/05/16 07:24:16;;;;;;;5.63;1.77;;;13.10;1.00;;;;;;6143824;23;20202;-82
2023/05/16 07:26:42;;;;;;;8.07;1.80;;;13.70;1.00;;;;;;6144878;23;20396;-82
2023/05/16 07:29:08;;;;;;;8.85;2.10;;;13.70;1.00;;;;;;6119064;23;20247;-81
2023/05/16 07:31:33;;;;;;;7.45;1.70;;;14.00;1.00;;;;;;6144396;23;20595;-81
2023/05/16 07:33:59;;;;;;;4.63;1.55;;;13.70;1.00;;;;;;6144690;23;20159;-81
2023/05/16 07:36:25;;;;;;;6.95;2.35;;;14.40;1.00;;;;;;6144054;23;20893;-81
2023/05/16 07:38:50;;;;;;;7.85;2.08;;;14.00;1.00;;;;;;6145445;23;20183;-82
2023/05/16 07:41:16;;;;;;;7.70;1.63;;;14.60;1.00;;;;;;6120480;23;20191;-81
2023/05/16 07:43:41;;;;;;;10.02;2.20;;;14.90;1.00;;;;;;6120323;23;20160;-81
2023/05/16 07:46:07;;;;;;;9.75;2.50;;;14.60;1.00;;;;;;6145412;23;20167;-81
2023/05/16 07:48:33;;;;;;;8.05;1.98;;;14.80;1.00;;;;;;6143223;23;20171;-82
2023/05/16 07:50:58;;;;;;;5.32;1.60;;;15.80;1.00;;;;;;6118345;23;20622;-82
2023/05/16 07:53:24;;;;;;;4.95;1.50;;;14.80;1.00;;;;;;6118733;23;20211;-81
2023/05/16 07:55:50;;;;;;;7.20;2.08;;;15.10;1.00;;;;;;6144319;23;20159;-82
2023/05/16 07:58:15;;;;;;;7.80;1.40;;;15.00;1.00;;;;;;6144477;23;20191;-81
2023/05/16 08:00:41;;;;;;;8.32;2.38;;;14.80;1.00;;;;;;6118234;23;20884;-81
2023/05/16 08:03:06;;;;;;;6.00;1.48;;;14.40;1.00;;;;;;6144541;23;20404;-81
2023/05/16 08:05:32;;;;;;;8.32;2.00;;;14.20;1.00;;;;;;6144498;23;20210;-81
2023/05/16 08:07:57;;;;;;;8.30;1.70;;;14.20;1.00;;;;;;6117699;23;20618;-81
2023/05/16 08:10:23;;;;;;;5.47;1.33;;;13.50;1.00;;;;;;6118318;23;20160;-82
2023/05/16 08:12:49;;;;;;;8.40;1.63;;;13.50;1.00;;;;;;6117887;23;20168;-82
2023/05/16 08:15:14;;;;;;;5.82;1.45;;;14.60;1.00;;;;;;6118394;23;20467;-81
2023/05/16 08:17:40;;;;;;;8.40;1.67;;;14.20;1.00;;;;;;6143856;23;20163;-81
2023/05/16 08:20:06;;;;;;;7.30;2.00;;;14.30;1.00;;;;;;6118348;23;20188;-81
2023/05/16 08:22:32;;;;;;;5.93;1.70;;;14.60;1.00;;;;;;6118163;23;20163;-81
2023/05/16 08:24:59;;;;;;;8.10;1.65;;;15.20;1.00;;;;;;6120014;23;20156;-80
2023/05/16 08:27:28;;;;;;;8.73;1.73;;;15.30;1.00;;;;;;6146118;23;20163;-81
2023/05/16 08:29:53;;;;;;;8.15;1.95;;;15.30;1.00;;;;;;6145450;23;20178;-80
2023/05/16 08:32:20;;;;;;;7.55;1.85;;;15.20;1.00;;;;;;6121767;23;20159;-80
2023/05/16 08:34:45;;;;;;;7.18;2.15;;;15.20;1.00;;;;;;6122886;23;20166;-82
2023/05/16 08:37:11;;;;;;;5.25;1.65;;;15.10;1.00;;;;;;6147975;23;20183;-80
2023/05/16 08:39:39;;;;;;;7.28;1.70;;;14.70;1.00;;;;;;6122405;23;20495;-81
2023/05/16 08:42:06;;;;;;;9.73;2.05;;;14.90;1.00;;;;;;6120859;23;20250;-82
2023/05/16 08:44:33;;;;;;;7.78;1.83;;;14.60;1.00;;;;;;6122155;23;20600;-81
2023/05/16 08:47:09;;;;;;;8.63;1.80;;;14.90;1.00;;;;;;6122505;23;20530;-80
2023/05/16 08:49:35;;;;;;;5.38;1.90;;;15.30;1.00;;;;;;6121750;23;20189;-82
2023/05/16 08:52:03;;;;;;;7.22;2.10;;;15.10;1.00;;;;;;6148623;23;20168;-82
2023/05/16 08:54:29;;;;;;;9.55;1.80;;;14.80;1.00;;;;;;6148723;23;20183;-82
2023/05/16 08:56:55;;;;;;;9.27;1.92;;;15.00;1.00;;;;;;6148052;23;20156;-82
2023/05/16 08:59:21;;;;;;;8.00;1.80;;;15.30;1.00;;;;;;6121997;23;20194;-81
2023/05/16 09:01:47;;;;;;;6.68;1.77;;;15.30;1.00;;;;;;6122025;23;20206;-81
2023/05/16 09:04:12;;;;;;;6.50;1.67;;;15.10;1.00;;;;;;6148235;23;20147;-81
2023/05/16 09:06:38;;;;;;;6.18;1.67;;;15.40;1.00;;;;;;6121863;23;20554;-82
2023/05/16 09:09:06;;;;;;;6.18;1.52;;;15.70;1.00;;;;;;6147873;23;20656;-82
2023/05/16 09:11:32;;;;;;;4.35;1.27;;;15.90;1.00;;;;;;6122209;23;20163;-82
2023/05/16 09:13:58;;;;;;;6.68;1.50;;;16.50;1.00;;;;;;6148160;23;20166;-83
2023/05/16 09:16:23;;;;;;;4.43;1.30;;;15.80;1.00;;;;;;6120854;23;20584;-81
2023/05/16 09:18:55;;;;;;;6.50;1.60;;;16.40;1.00;;;;;;6122023;23;20705;-81
2023/05/16 09:21:22;;;;;;;7.82;1.73;;;15.40;1.00;;;;;;6122502;23;20183;-81
2023/05/16 09:23:48;;;;;;;3.42;1.30;;;15.40;1.00;;;;;;6122086;23;20147;-81
2023/05/16 09:26:15;;;;;;;4.32;1.65;;;15.10;1.00;;;;;;6122138;23;20156;-82
2023/05/16 09:28:41;;;;;;;7.47;1.50;;;16.40;1.00;;;;;;6121132;23;20210;-82
2023/05/16 09:31:29;;;;;;;6.75;1.70;;;15.20;1.00;;;;;;6119063;23;20242;-82
2023/05/16 09:33:57;;;;;;;4.78;1.20;;;15.30;1.00;;;;;;6144787;23;20144;-82
2023/05/16 09:36:25;;;;;;;5.10;1.30;;;15.30;1.00;;;;;;6119069;23;20166;-81
2023/05/16 09:38:51;;;;;;;5.40;1.58;;;14.90;1.00;;;;;;6148414;23;20636;-82
2023/05/16 09:41:17;;;;;;;3.70;1.20;;;14.70;1.00;;;;;;6147812;23;20180;-80
2023/05/16 09:43:43;;;;;;;6.13;1.40;;;14.60;1.00;;;;;;6120973;23;20171;-84
2023/05/16 09:46:13;;;;;;;2.60;0.98;;;14.40;1.00;;;;;;6121867;23;20167;-82
2023/05/16 09:48:50;;;;;;;4.13;1.30;;;14.30;1.00;;;;;;6121742;23;20270;-81
2023/05/16 09:51:21;;;;;;;4.53;1.17;;;14.40;1.00;;;;;;6121899;23;20939;-81
2023/05/16 09:53:47;;;;;;;4.57;1.20;;;14.50;1.00;;;;;;6122047;23;20152;-81
2023/05/16 09:56:13;;;;;;;3.92;1.27;;;14.30;1.00;;;;;;6122018;23;20168;-81
2023/05/16 09:58:41;;;;;;;6.53;1.20;;;14.30;1.00;;;;;;6147595;23;20190;-81
2023/05/16 10:01:08;;;;;;;5.93;1.48;;;13.90;1.00;;;;;;6148075;23;20298;-81
2023/05/16 10:03:36;;;;;;;5.40;1.83;;;15.00;1.00;;;;;;6121744;23;20202;-81
2023/05/16 10:06:03;;;;;;;4.25;1.05;;;14.00;1.00;;;;;;6148089;23;20215;-81
2023/05/16 10:08:34;;;;;;;4.10;1.30;;;14.10;1.00;;;;;;6121946;23;20259;-84
2023/05/16 10:11:01;;;;;;;4.47;1.15;;;14.20;1.00;;;;;;6148068;23;20191;-82
2023/05/16 10:13:32;;;;;;;6.75;1.88;;;14.10;1.00;;;;;;6121648;23;20167;-81
2023/05/16 10:15:59;;;;;;;7.82;1.38;;;14.20;1.00;;;;;;6121324;23;20167;-80
2023/05/16 10:18:29;;;;;;;5.18;1.30;;;14.40;1.00;;;;;;6121984;23;20194;-81
2023/05/16 10:21:01;;;;;;;5.13;1.15;;;15.50;1.00;;;;;;6147757;23;20180;-81
2023/05/16 10:23:27;;;;;;;5.75;1.38;;;14.30;1.00;;;;;;6121529;23;20156;-81
2023/05/16 10:25:56;;;;;;;6.15;1.20;;;14.40;1.00;;;;;;6121485;23;20501;-81
2023/05/16 10:28:23;;;;;;;3.78;1.23;;;14.50;1.00;;;;;;6121265;23;20180;-80
2023/05/16 10:30:50;;;;;;;6.78;1.52;;;14.60;1.00;;;;;;6147392;23;20235;-81
2023/05/16 10:33:17;;;;;;;5.65;1.20;;;14.80;1.00;;;;;;6147509;23;20167;-82
2023/05/16 10:35:45;;;;;;;3.05;1.42;;;15.10;1.00;;;;;;6121458;23;20210;-81
2023/05/16 10:38:13;;;;;;;6.55;2.45;;;15.10;1.00;;;;;;6120977;23;20186;-81
2023/05/16 10:40:40;;;;;;;7.07;1.30;;;14.90;1.00;;;;;;6121075;23;20191;-82
2023/05/16 10:43:07;;;;;;;4.55;1.20;;;16.00;1.00;;;;;;6122816;23;20194;-84
2023/05/16 10:45:34;;;;;;;4.03;1.00;;;16.20;1.00;;;;;;6149515;23;20231;-84
2023/05/16 10:48:02;;;;;;;6.07;1.20;;;15.30;1.00;;;;;;6150435;23;20221;-84
2023/05/16 10:50:38;;;;;;;4.47;1.00;;;15.10;1.00;;;;;;6124273;23;20166;-84
2023/05/16 10:53:21;;;;;;;6.70;1.30;;;15.00;1.00;;;;;;6124916;23;20621;-84
2023/05/16 10:55:59;;;;;;;4.43;1.30;;;14.80;1.00;;;;;;6124989;23;20170;-84
2023/05/16 10:58:37;;;;;;;4.93;1.15;;;14.90;1.00;;;;;;6124689;23;20187;-83
2023/05/16 11:01:23;;;;;;;3.83;1.10;;;14.80;1.00;;;;;;6124884;23;20242;-83
2023/05/16 11:03:57;;;;;;;5.18;1.77;;;14.80;1.00;;;;;;6124893;23;20214;-84
2023/05/16 11:06:25;;;;;;;3.58;0.98;;;14.60;1.00;;;;;;6150969;23;20504;-84
2023/05/16 11:09:06;;;;;;;4.80;1.58;;;14.60;1.00;;;;;;6151813;23;20202;-84
2023/05/16 11:11:40;;;;;;;4.28;1.45;;;15.00;1.00;;;;;;6126682;23;20218;-85
2023/05/16 11:14:06;;;;;;;4.22;1.40;;;15.40;1.00;;;;;;6126380;23;20159;-85
2023/05/16 11:16:33;;;;;;;4.28;0.90;;;16.10;1.00;;;;;;6127024;23;20198;-84
2023/05/16 11:19:08;;;;;;;3.83;0.88;;;15.50;1.00;;;;;;6128215;23;20187;-83
2023/05/16 11:22:16;;;;;;;3.60;1.10;;;15.50;1.00;;;;;;6129274;23;20265;-85
2023/05/16 11:24:53;;;;;;;4.25;1.05;;;15.40;1.00;;;;;;6125612;23;20190;-85
2023/05/16 11:27:25;;;;;;;5.13;1.13;;;15.50;1.00;;;;;;6129165;23;20173;-84
2023/05/16 11:29:52;;;;;;;3.13;0.90;;;15.40;1.00;;;;;;6128981;23;20262;-86
2023/05/16 11:32:22;;;;;;;3.85;1.00;;;16.20;1.00;;;;;;6129987;23;20853;-84
2023/05/16 11:34:49;;;;;;;4.13;0.90;;;16.00;1.00;;;;;;6129714;23;21116;-84
2023/05/16 11:37:16;;;;;;;3.08;0.93;;;15.30;1.00;;;;;;6128294;23;20194;-86
2023/05/16 11:39:42;;;;;;;3.97;1.20;;;15.30;1.00;;;;;;6128661;23;20654;-86
2023/05/16 11:42:08;;;;;;;2.88;0.93;;;15.70;1.00;;;;;;6128245;23;20194;-85
2023/05/16 11:44:34;;;;;;;3.10;0.73;;;15.30;1.00;;;;;;6152357;23;20139;-85
2023/05/16 11:47:01;;;;;;;6.63;1.00;;;15.70;1.00;;;;;;6127095;23;20179;-84
2023/05/16 11:49:27;;;;;;;2.38;0.85;;;15.40;1.00;;;;;;6152602;23;20183;-85
2023/05/16 11:51:55;;;;;;;4.97;0.95;;;15.30;1.00;;;;;;6125406;23;20271;-82
2023/05/16 11:54:21;;;;;;;3.45;1.08;;;15.80;1.00;;;;;;6147384;23;20160;-81
2023/05/16 11:56:48;;;;;;;4.03;1.08;;;16.30;1.00;;;;;;6120652;23;20164;-81
2023/05/16 11:59:14;;;;;;;3.30;0.85;;;15.30;1.00;;;;;;6119341;23;20187;-81
2023/05/16 12:01:40;;;;;;;6.15;1.30;;;16.40;1.00;;;;;;6146070;23;20175;-81
2023/05/16 12:04:13;;;;;;;2.47;0.93;;;15.40;1.00;;;;;;6119695;23;20162;-81
2023/05/16 12:06:39;;;;;;;3.08;0.98;;;15.40;1.00;;;;;;6146083;23;20155;-81
2023/05/16 12:09:09;;;;;;;4.35;1.17;;;16.30;1.00;;;;;;6146171;23;20176;-82
2023/05/16 12:11:39;;;;;;;1.42;0.60;;;16.40;1.00;;;;;;6145932;23;20162;-82
2023/05/16 12:14:07;;;;;;;3.20;1.08;;;16.00;1.00;;;;;;6119723;23;20513;-82
2023/05/16 12:16:34;;;;;;;3.97;1.15;;;16.80;1.00;;;;;;6119938;23;20625;-81
2023/05/16 12:19:01;;;;;;;3.03;1.00;;;16.90;1.00;;;;;;6146057;23;20176;-81
2023/05/16 12:21:26;;;;;;;4.40;1.23;;;16.70;1.00;;;;;;6145478;23;20274;-82
2023/05/16 12:23:58;;;;;;;3.45;1.05;;;17.10;1.00;;;;;;6119730;23;20198;-82
2023/05/16 12:26:25;;;;;;;3.70;1.10;;;16.90;1.00;;;;;;6119389;23;20166;-82
2023/05/16 12:28:59;;;;;;;5.68;1.10;;;16.90;1.00;;;;;;6119522;23;20183;-81
2023/05/16 12:31:25;;;;;;;3.53;0.77;;;16.70;1.00;;;;;;6119889;23;20884;-82
2023/05/16 12:33:54;;;;;;;1.90;0.68;;;16.90;1.00;;;;;;6119961;23;20159;-82
2023/05/16 12:36:20;;;;;;;4.57;0.95;;;17.10;1.00;;;;;;6119634;23;20167;-83
2023/05/16 12:38:47;;;;;;;4.03;0.90;;;16.90;1.00;;;;;;6145388;23;20636;-82
2023/05/16 12:41:18;;;;;;;3.38;0.80;;;16.90;1.00;;;;;;6119404;23;20187;-82
2023/05/16 12:43:43;;;;;;;3.45;0.90;;;17.50;1.00;;;;;;6119698;23;20610;-82
2023/05/16 12:46:10;;;;;;;5.22;0.90;;;17.10;1.00;;;;;;6119799;23;20166;-82
2023/05/16 12:48:38;;;;;;;2.83;1.05;;;17.10;1.00;;;;;;6119303;23;20581;-82
2023/05/16 12:51:15;;;;;;;6.53;0.85;;;16.90;1.00;;;;;;6119911;23;20167;-81
2023/05/16 12:53:45;;;;;;;4.70;0.85;;;16.80;1.00;;;;;;6146184;23;20218;-81
2023/05/16 12:56:13;;;;;;;3.58;1.00;;;16.50;1.00;;;;;;6119397;23;20657;-81